Tuesday, September 02, 2014
19:02 UTC
  |  Log In   |  Register Free
Airport Search:

Owosso Community Airport
(KRNP)

Owosso Community Airport Diagram
No Airport Diagram Available

FAA data valid effective July 24, 2014 until September 18, 2014 (unless otherwise noted).

 
 
 
 
 
 
 
 
 
 
 
 
 
 

Current Aviation Weather for Owosso Community Airport (KRNP)

The most recent METAR observation for KRNP was updated at: 1754 UTC
METAR Summary (Translated METAR)
KRNP
021754Z AUTO 27009KT 10SM SCT033 24/16 A2987 RMK AO2 T02360161
KFNT
(17.4 nm SE from KRNP)
021753Z 29013KT 10SM CLR 25/14 A2986 RMK AO2 SLP107 T02500144 10272 20211 58003
TAF Summary (Translated TAF)
KFNT
(17.4 nm SE from KRNP)
021720Z 0218/0318 27010KT P6SM SCT050 FM030100 24005KT P6SM SCT070 FM031500 23008KT P6SM FEW070
KLAN
(23.5 nm SW from KRNP)
021740Z 0218/0318 29007KT P6SM BKN150
  Airport Weather Conditions for KRNP

 Current Weather at RNP
74° F
Partly Cloudy
West winds at 10.4 mph
RNP NOAA Radar

Pressure: 29.87 in
Humidity: 63%
Wind: West at 10.4 MPH (9 KT)
Dew Point: 61.0°F
Visibility: 10.00 mi


Airport Weather Forecast for KRNP

Translated METAR and TAF for KRNP
Translated METAR for KRNP (1856 UTC 02 September 2014)
found at http://aviationweather.gov/adds/metars/
 
METAR text: KRNP 021833Z AUTO 25010KT 10SM SCT039 24/15 A2987 RMK AO2 T02370153
Conditions at: KRNP (OWOSSO , MI, US) observed 1833 UTC 02 September 2014
Temperature: 23.7°C (75°F)
Dewpoint: 15.3°C (60°F) [RH = 59%]
Pressure (altimeter): 29.87 inches Hg (1011.6 mb)
Winds: from the WSW (250 degrees) at 12 MPH (10 knots; 5.2 m/s)
Visibility: 10 or more miles (16+ km)
Ceiling: at least 12,000 feet AGL
Clouds: scattered clouds at 3900 feet AGL
Weather: automated observation with no human augmentation;
there may or may not be significant weather present at this time
Translated TAF for KRNP

There is no translated TAF available for this airport

Find All Airport Services Find A Hotel Find A Rental Car Find A Golf Course Find A Restaurant $100 Hamburger



FBO's on the Field
FBO Company Facility Photos Services Transportation Aviation Fuel Prices: Prices include tax
Catering Weather Repair Courtesy Rental Type 100LL JetA JetA+ MOGAS 8087
 
Owosso Community Airport

This FBO has not yet been rated
FS:Avfuel
Last Updated: Aug-21
Login to update fuel prices
SS:
Contact Owosso Community AirportMore FBO Information
 
Add another FBO Facility Photos Catering Weather Repair Courtesy Rental Type 100LL JetA JetA+ MOGAS 8087
Services Transportation Aviation Fuel Prices: Prices include tax


GlobalAir.com Airport Resource Center model-print
model-print
model-print
model-print